Oma, Wisconsin
Current Conditions -  °F | °C
As of 8:15 PM on Friday 19 Dec 2014 (Local Time) from KIWD Reporting Station
Overcast Overcast  
Wind Chill: 17°   Ceiling: 9000
Heat Index: 23°   Visibility: 9mi
Dew Point: 19°   Wind: 5mph
Humidity: 86%   Direction: 170°S
Pressure: 30.17"   Gusts: NA
Location:  46.3789°N, 90.2259°W
Report Text: KIWD 200215Z AUTO 17004KT 9SM SCT010 OVC090 M05/M07 A3017 RMK AO1
Loading
Personal Weather Stations






























Interactive Weather Map New forecast layout! Learn more

10-Day Weather Forecast

Advertisements
Track Severe Weather on mobile